Hamilton (Chedoke-Mcmaster Hospital) Hel

CA-0898 · Ontario, Canada

METAR history CA-0898 · Hamilton (Chedoke-Mcmaster Hospital) Hel

Below you see METARs of the last few days. Select a year to browse through older METARs, from the year 2007 onwards.

May 27, 2024

Time Code Weather Temp. Visibility Ceiling Wind METAR/SPECI
15:00
M
22 °C 15 mi 2,400 ft 220° 220° 17 - 24 kt METAR CYHM 271900Z 22017G24KT 15SM BKN024 BKN048 22/18 A2950 RMK CU5SC1 SC TR SLP989 DENSITY ALT 2300FT
14:00
M
22 °C 15 mi 2,300 ft 230° 230° 17 - 23 kt METAR CYHM 271800Z 23017G23KT 15SM BKN023 BKN038 BKN250 22/19 A2951 RMK CU4SC1CC1 CC TR SLP994 DENSITY ALT 2300FT
13:18
M
20 °C 15 mi 1,500 ft 220° 220° 19 - 25 kt METAR CYHM 271718Z 22019G25KT 15SM BKN015 BKN021 20/19 A2952 RMK SC5SC2 SLP996 DENSITY ALT 2100FT
13:00
M
20 °C 15 mi 1,400 ft 210° 210° 17 - 25 kt METAR CYHM 271700Z 21017G25KT 15SM BKN014 OVC021 20/19 A2951 RMK SC6SC2 SLP995 DENSITY ALT 2000FT
12:50
M
20 °C 15 mi 1,300 ft 220° 220° 15 - 24 kt METAR CYHM 271650Z 22015G24KT 15SM BKN013 BKN019 20/20 A2951 RMK SC5SC1 SLP993 DENSITY ALT 2000FT
12:39
M
20 °C 15 mi 1,800 ft 220° 220° 19 - 24 kt METAR CYHM 271639Z 22019G24KT 15SM SCT010 BKN018 BKN057 20/20 A2950 RMK SC3SC3SC1 SLP991 DENSITY ALT 2000FT
12:00
I
18 °C 6 mi 700 ft 200° 200° 12 - 21 kt METAR CYHM 271600Z 20012G21KT 6SM -RA BR BKN007 OVC012 18/18 A2949 RMK SC7SC1 SLP987 DENSITY ALT 1900FT
11:34
I
18 °C 5 mi 700 ft 190° 190° 15 - 21 kt METAR CYHM 271534Z 19015G21KT 5SM -RA BR BKN007 OVC014 18/18 A2949 RMK SC7SC1 SLP987 DENSITY ALT 1800FT
11:19
I
18 °C 2 mi 500 ft 190° 190° 15 - 21 kt METAR CYHM 271519Z 19015G21KT 2SM -RA BR BKN005 OVC012 18/18 A2949 RMK SC7SC1 SLP989 DENSITY ALT 1800FT
11:00
L
18 °C 1½ mi 400 ft 190° 190° 12 - 17 kt METAR CYHM 271500Z 19012G17KT 1 1/2SM R12/3500V6000FT/U RA BR BKN004 OVC012 18/18 A2949 RMK FG1SC6SC1 /R13/ SLP989 DENSITY ALT 1800FT
10:45
L
18 °C 1¾ mi 400 ft 190° 190° 11 - 17 kt METAR CYHM 271445Z 19011G17KT 1 3/4SM R12/5000VP6000FT/U +RA BR BKN004 OVC009 18/18 A2949 RMK SC7SC1 SLP989 DENSITY ALT 1800FT
10:30
L
18 °C 1¼ mi 400 ft 190° 190° 11 kt METAR CYHM 271430Z 19011KT 1 1/4SM R12/4000VP6000FT/D +RA BR BKN004 OVC012 18/18 A2949 RMK FG2SC5SC1 SLP989 DENSITY ALT 1800FT
10:27
I
18 °C 2 mi 500 ft 190° 190° 11 - 18 kt METAR CYHM 271427Z 19011G18KT 2SM R12/5500VP6000FT/D +RA BR OVC005 18/18 A2949 RMK SC8 SLP989 DENSITY ALT 1800FT
10:23
I
18 °C 4 mi 500 ft 190° 190° 12 - 18 kt METAR CYHM 271423Z 19012G18KT 4SM RA BR OVC005 18/18 A2949 RMK SC8 SLP989 DENSITY ALT 1800FT
10:00
I
18 °C 6 mi 500 ft 170° 170° 10 kt METAR CYHM 271400Z 17010KT 6SM -RA BR OVC005 18/18 A2949 RMK SC8 SLP989 DENSITY ALT 1800FT
09:25
I
18 °C 4 mi 500 ft 160° 160° 11 - 17 kt METAR CYHM 271325Z 16011G17KT 4SM -RA BR BKN005 OVC012 18/18 A2950 RMK SC7SC1 SLP991 DENSITY ALT 1800FT
09:13
I
18 °C 2½ mi 600 ft 160° 160° 11 - 18 kt METAR CYHM 271313Z 16011G18KT 2 1/2SM R12/3500VP6000FT/D RA BR BKN006 OVC026 18/18 A2951 RMK SC7SC1 SLP993 DENSITY ALT 1800FT
09:07
I
18 °C 1 mi 500 ft 170° 170° 13 kt METAR CYHM 271307Z 17013KT 1SM R12/P6000FT/U +RA BR OVC005 18/18 A2951 RMK FG3SC5 SLP996 DENSITY ALT 1800FT
08:44
I
18 °C 6 mi 900 ft 160° 160° 11 kt METAR CYHM 271244Z 16011KT 6SM -RA BR BKN009 OVC053 18/18 A2951 RMK SC6SC2 SLP994 DENSITY ALT 1800FT
08:13
M
18 °C 8 mi 2,200 ft 170° 170° 10 - 19 kt METAR CYHM 271213Z 17010G19KT 8SM -RA FEW013 BKN022 OVC058 18/18 A2953 RMK CF1SC6SC1 SLP002 DENSITY ALT 1800FT
08:00
M
18 °C 15 mi 2,000 ft 180° 180° 14 kt METAR CYHM 271200Z 18014KT 15SM FEW013 BKN020 OVC042 18/18 A2954 RMK CF1SC7SC1 CF TR SLP003 DENSITY ALT 1800FT
07:00
V
18 °C 15 mi 3,600 ft 190° 190° 11 - 18 kt METAR CYHM 271100Z 19011G18KT 15SM FEW013 SCT019 BKN036 18/18 A2954 RMK CF2SC2SC3 SLP004 DENSITY ALT 1800FT
06:00
M
18 °C 10 mi 1,000 ft 190° 190° 10 - 23 kt METAR CYHM 271000Z 19010G23KT 10SM BKN010 OVC019 18/18 A2955 RMK SC6SC2 SLP006 DENSITY ALT 1800FT
05:37
M
18 °C 12 mi 1,500 ft 190° 190° 12 kt METAR CYHM 270937Z 19012KT 12SM BKN015 BKN035 18/18 A2953 RMK SC6SC1 SLP001 DENSITY ALT 1800FT
05:00
I
18 °C 15 mi 900 ft 190° 190° 13 - 19 kt METAR CYHM 270900Z 19013G19KT 15SM OVC009 18/18 A2953 RMK SC8 SLP000 DENSITY ALT 1800FT
04:00
M
18 °C 15 mi 1,200 ft 190° 190° 15 kt METAR CYHM 270800Z 19015KT 15SM OVC012 18/18 A2952 RMK SC8 SLP996 DENSITY ALT 1800FT
03:51
M
18 °C 15 mi 1,200 ft 190° 190° 15 - 22 kt METAR CYHM 270751Z 19015G22KT 15SM -RA BKN012 OVC018 18/18 A2952 RMK SC7SC1 SLP996 DENSITY ALT 1800FT
03:00
M
18 °C 15 mi 1,500 ft 180° 180° 18 - 25 kt METAR CYHM 270700Z 18018G25KT 15SM -RA FEW007 OVC015 18/18 A2953 RMK SF2SC6 SLP999 DENSITY ALT 1800FT
02:52
M
18 °C 15 mi 1,700 ft 170° 170° 18 - 25 kt METAR CYHM 270652Z 17018G25KT 15SM -RA FEW010 OVC017 18/18 A2953 RMK CF2SC6 SLP000 DENSITY ALT 1800FT
02:00
I
18 °C 2½ mi 700 ft 170° 170° 13 - 26 kt METAR CYHM 270600Z 17013G26KT 120V200 2 1/2SM RA BR OVC007 18/18 A2957 RMK SF8 /R14/ SLP014 DENSITY ALT 1700FT
02:03
I
18 °C 12 mi 800 ft 180° 180° 15 - 26 kt METAR CYHM 270603Z 18015G26KT 130V200 12SM -RA OVC008 18/18 A2956 RMK SC8 SLP012 DENSITY ALT 1700FT
01:45
L
17 °C 2¼ mi 400 ft 130° 130° 13 - 20 kt METAR CYHM 270545Z 13013G20KT 2 1/4SM RA BR OVC004 17/17 A2957 RMK SF8 SLP014 DENSITY ALT 1700FT
01:28
I
16 °C 2¼ mi 800 ft 090° 090° 8 kt METAR CYHM 270528Z 09008KT 2 1/4SM +RA BR OVC008 16/16 A2958 RMK SC8 SLP018 DENSITY ALT 1500FT
01:21
I
16 °C 2½ mi 1,100 ft 080° 080° 8 kt METAR CYHM 270521Z 08008KT 2 1/2SM +RA BR OVC011 16/16 A2958 RMK SC8 SLP019 DENSITY ALT 1600FT
01:16
M
17 °C 4 mi 1,600 ft 070° 070° 9 kt METAR CYHM 270516Z 07009KT 4SM RA BR OVC016 17/17 A2958 RMK SC8 SLP018 DENSITY ALT 1600FT
01:00
V
16 °C 12 mi 3,100 ft 040° 040° 10 kt METAR CYHM 270500Z 04010KT 12SM -RA BKN031 OVC065 16/16 A2959 RMK SC6SC2 PRESFR SLP021 DENSITY ALT 1500FT
00:45
V
16 °C 10 mi 3,200 ft 030° 030° 7 kt METAR CYHM 270445Z 03007KT 10SM -RA OVC032 16/16 A2960 RMK SC8 SLP026 DENSITY ALT 1400FT
00:22
V
15 °C 8 mi 4,000 ft 030° 030° 7 kt METAR CYHM 270422Z 03007KT 8SM RA OVC040 15/15 A2962 RMK SC8 PRESFR SLP032 DENSITY ALT 1400FT
00:14
I
15 °C 2 mi 2,000 ft 030° 030° 8 kt METAR CYHM 270414Z 03008KT 2SM +RA OVC020 15/15 A2963 RMK RA1SC7 PRESFR SLP037 DENSITY ALT 1400FT
00:00
V
15 °C 7 mi 7,100 ft 040° 040° 9 kt METAR CYHM 270400Z 04009KT 7SM -RA FEW035 OVC071 15/15 A2965 RMK SC2AC6 SLP043 DENSITY ALT 1400FT

May 26, 2024

Time Code Weather Temp. Visibility Ceiling Wind METAR/SPECI
23:31
V
15 °C 5 mi 5,600 ft 090° 090° 7 kt METAR CYHM 270331Z 09007KT 040V110 5SM RA FEW040 OVC056 15/15 A2968 RMK SC2SC6 PRESRR SLP054 DENSITY ALT 1300FT
23:00
V
15 °C 15 mi 6,100 ft 020° 020° 15 - 20 kt METAR CYHM 270300Z 02015G20KT 15SM BKN061 OVC100 15/15 A2966 RMK SC6AC2 SLP045 DENSITY ALT 1300FT
22:00
V
16 °C 12 mi 15,000 ft 040° 040° 16 - 23 kt METAR CYHM 270200Z 04016G23KT 12SM SCT070 OVC150 16/15 A2970 RMK AC4AC4 SLP058 DENSITY ALT 1300FT
21:00
V
16 °C 10 mi 19,000 ft 040° 040° 14 - 20 kt METAR CYHM 270100Z 04014G20KT 10SM SCT065 SCT090 OVC190 16/15 A2974 RMK SC3AC1AC4 SLP073 DENSITY ALT 1300FT
20:00
V
16 °C 10 mi 20,000 ft 040° 040° 16 - 21 kt METAR CYHM 270000Z 04016G21KT 10SM FEW100 OVC200 16/16 A2976 RMK AC2CI6 SLP079 DENSITY ALT 1300FT
19:00
V
16 °C 10 mi 24,000 ft 050° 050° 16 - 21 kt METAR CYHM 262300Z 05016G21KT 10SM FEW220 OVC240 16/15 A2979 RMK CI2CS6 SUN DIMLY VISBL SLP090 DENSITY ALT 1300FT
18:00
V
18 °C 10 mi 21,000 ft 040° 040° 14 kt METAR CYHM 262200Z 04014KT 10SM BKN210 18/14 A2983 RMK CI7 SLP103 DENSITY ALT 1400FT
17:00
V
19 °C 10 mi 23,000 ft 050° 050° 14 kt METAR CYHM 262100Z 05014KT 10SM FEW200 BKN230 19/13 A2984 RMK CI2CI5 SLP106 DENSITY ALT 1600FT
16:00
V
21 °C 10 mi 23,000 ft 050° 050° 10 kt METAR CYHM 262000Z 05010KT 10SM SCT200 BKN230 21/14 A2987 RMK CI3CI4 SLP115 DENSITY ALT 1700FT
15:00
V
20 °C 10 mi 25,000 ft 070° 070° 6 kt METAR CYHM 261900Z 07006KT 010V090 10SM FEW025 FEW180 BKN250 20/14 A2990 RMK CF1AC1CI6 CF TR SLP127 DENSITY ALT 1700FT
14:22
V
19 °C 7 mi - 060° 060° 6 kt METAR CYHM 261822Z 06006KT 030V170 7SM FEW025 SCT250 19/16 A2993 RMK CF1CI6 SLP136 DENSITY ALT 1500FT
14:00
M
18 °C 3 mi 23,000 ft 060° 060° 6 kt METAR CYHM 261800Z 06006KT 3SM BR FEW016 SCT025 BKN230 18/16 A2993 RMK CF1SC2CI3 SLP140 DENSITY ALT 1300FT
13:49
I
18 °C 3 mi 2,200 ft 090° 090° 4 kt METAR CYHM 261749Z 09004KT 040V140 3SM BR FEW013 BKN022 BKN230 18/17 A2994 RMK CF1SC5CI1 CI TR SLP143 DENSITY ALT 1300FT
13:37
I
18 °C 1¾ mi 1,100 ft 110° 110° 5 kt METAR CYHM 261737Z 11005KT 070V160 1 3/4SM BR FEW004 BKN011 BKN230 18/17 A2995 RMK CF1SC6CI1 CI TR SLP145 DENSITY ALT 1300FT
13:00
I
17 °C 1¼ mi 900 ft 090° 090° 9 kt METAR CYHM 261700Z 09009KT 050V120 1 1/4SM BR FEW004 BKN009 17/16 A2995 RMK CF2SC5 SLP144 DENSITY ALT 1200FT
12:00
I
16 °C 1 mi 600 ft 040° 040° 7 kt METAR CYHM 261600Z 04007KT 030V100 1SM R12/P6000FT/N BR OVC006 16/16 A2996 RMK ST8 SLP149 DENSITY ALT 1000FT
11:19
I
15 °C 1 mi 500 ft 050° 050° 7 kt METAR CYHM 261519Z 05007KT 1SM R12/P6000FT/N BR OVC005 15/15 A2995 RMK FG4ST4 SLP144 DENSITY ALT 1000FT
11:00
L
15 °C 1 mi 400 ft 050° 050° 9 kt METAR CYHM 261500Z 05009KT 1SM R12/P6000FT/N BR OVC004 15/15 A2995 RMK FG4ST4 SLP146
10:20
L
14 °C ¾ mi 300 ft 070° 070° 6 kt METAR CYHM 261420Z 07006KT 3/4SM R12/P6000FT/N BR OVC003 14/14 A2997 RMK FG6ST2 SLP151
10:00
L
15 °C ½ mi 200 ft 030° 030° 7 kt METAR CYHM 261400Z 03007KT 1/2SM R12/2600V5500FT/U FG VV002 15/15 A2996 RMK FG8 SLP149
09:36
L
14 °C ⅝ mi 200 ft 040° 040° 10 kt METAR CYHM 261336Z 04010KT 5/8SM R12/P6000FT/N BR OVC002 14/14 A2996 RMK FG6SF2 SLP149
09:00
L
15 °C ¾ mi 300 ft 050° 050° 8 kt METAR CYHM 261300Z 05008KT 3/4SM R12/P6000FT/N BR OVC003 15/15 A2996 RMK FG6SF2 SLP147
08:48
L
15 °C ¾ mi 400 ft 040° 040° 10 kt METAR CYHM 261248Z 04010KT 3/4SM R12/P6000FT/N BR BKN004 15/15 A2996 RMK FG4SF3 SLP146 DENSITY ALT 1000FT
08:00
I
15 °C 1 mi 21,000 ft 050° 050° 8 kt METAR CYHM 261200Z 05008KT 1SM R12/P6000FT/U BR SCT006 BKN210 15/15 A2994 RMK FG2SF2CI3 SLP140 DENSITY ALT 1000FT
07:52
L
14 °C ¾ mi 100 ft 040° 040° 6 kt METAR CYHM 261152Z 04006KT 3/4SM R12/P6000FT/D BR BKN001 14/14 A2994 RMK FG4SF3 SLP140
07:16
L
12 °C ⅛ mi 100 ft 020° 020° 5 kt METAR CYHM 261116Z CCA 02005KT 1/8SM R12/6000FT/N FG VV001 OVC001 12/12 A2995 RMK FG7SF1 SLP143
07:13
L
12 °C ¾ mi 100 ft 020° 020° 4 kt METAR CYHM 261113Z 02004KT 3/4SM R12/P6000FT/N BR BKN001 12/12 A2995 RMK FG4SF3 SLP144
07:00
I
11 °C 1¾ mi 21,000 ft 360° 360° 0 kt METAR CYHM 261100Z 00000KT 1 3/4SM BR SCT014 BKN210 11/11 A2994 RMK FG2SF2CI1 PRESRR SLP143
06:26
L
9 °C ¾ mi 21,000 ft Var Var 2 kt METAR CYHM 261026Z VRB02KT 3/4SM R12/2800VP6000FT/N BR SCT001 BKN210 09/09 A2993 RMK FG2SF2CI1 SLP137
06:00
L
10 °C ⅛ mi 10,000 ft 220° 220° 4 kt METAR CYHM 261000Z 22004KT 1/8SM R12/1200V1400FT/N FG SCT001 BKN100 10/10 A2993 RMK FG3SF1AC1 SLP137
05:27
L
9 °C ⅛ mi 100 ft 230° 230° 3 kt METAR CYHM 260927Z 23003KT 1/8SM R12/1100V1200FT/N FG BKN001 09/09 A2993 RMK FG4SF1 SLP138
05:18
L
9 °C ¼ mi - 230° 230° 4 kt METAR CYHM 260918Z 23004KT 1/4SM R12/1200V1800FT/N FG SCT001 09/09 A2993 RMK FG3SF1 SLP138
05:07
L
10 °C ½ mi - 250° 250° 3 kt METAR CYHM 260907Z 25003KT 240V300 1/2SM R12/0800V1100FT/N FG SCT002 SCT090 10/10 A2992 RMK FG3SF1AC1 AC TR SLP136
04:12
L
11 °C ¾ mi - 350° 350° 3 kt METAR CYHM 260812Z 35003KT 3/4SM R12/4000VP6000FT/U BR SCT004 11/11 A2992 RMK FG3SF1 VIS VRB 1/2 - 1 SLP135
04:00
I
12 °C 1 mi - 010° 010° 4 kt METAR CYHM 260800Z 01004KT 1SM R12/2800V4000FT/N BR SKC 12/12 A2992 RMK FG3 VIS VRB 3/4 - 11/4 SLP134
03:09
L
11 °C ¾ mi - 300° 300° 2 kt METAR CYHM 260709Z 30002KT 3/4SM R12/1100V2200FT/N BR SCT004 11/11 A2991 RMK FG3SF1 VIS VRB 1/2 - 1 SLP132
03:00
L
11 °C ¼ mi 300 ft 260° 260° 2 kt METAR CYHM 260700Z 26002KT 1/4SM R12/0900V1200FT/N FG BKN003 11/11 A2991 RMK FG4SF1 SLP132
02:50
L
11 °C ⅛ mi 300 ft 360° 360° 0 kt METAR CYHM 260650Z 00000KT 1/8SM R12/0800V1800FT/U FG BKN003 11/11 A2990 RMK FG4SF1 SLP130
02:36
L
11 °C ¼ mi 200 ft 360° 360° 0 kt METAR CYHM 260636Z 00000KT 1/4SM R12/0600V1000FT/N FG BKN002 11/11 A2990 RMK FG5SF1 SLP129
02:23
L
11 °C ¾ mi - 290° 290° 2 kt METAR CYHM 260623Z 29002KT 3/4SM R12/0600V0800FT/N BR SKC 11/11 A2990 RMK FG3 VIS VRB 1/2 -1 SLP129
02:13
L
12 °C ½ mi - 270° 270° 3 kt METAR CYHM 260613Z 27003KT 1/2SM R12/0600V1100FT/N FG SKC 12/12 A2990 RMK FG4 SLP129
02:00
L
12 °C ¾ mi - 270° 270° 3 kt METAR CYHM 260600Z 27003KT 3/4SM R12/0700V1200FT/N BR SKC 12/12 A2990 RMK FG3 VIS VRB 1/2 - 1 SLP129
01:42
L
13 °C ¾ mi - 260° 260° 2 kt METAR CYHM 260542Z 26002KT 3/4SM BR SKC 13/13 A2990 RMK FG3 VIS VRB 1/2 - 1 SLP130
01:26
I
14 °C 1¼ mi - Var Var 2 kt METAR CYHM 260526Z VRB02KT 1 1/4SM R12/3500VP6000FT/N BR FEW003 14/14 A2990 RMK FG2SF1 SF TR VIS HIER NE SLP130
01:00
V
12 °C 6 mi - 240° 240° 2 kt METAR CYHM 260500Z 24002KT 6SM R12/3000VP6000FT/N BR SKC 12/12 A2990 RMK VIS LWR SE SLP129
00:17
V
12 °C 8 mi - Var Var 2 kt METAR CYHM 260417Z VRB02KT 8SM R12/3500VP6000FT/U FEW004 12/12 A2990 RMK SF1 SLP128
00:00
V
13 °C 8 mi - Var Var 2 kt METAR CYHM 260400Z VRB02KT 8SM R12/2800V5000FT/N MIFG SKC 13/13 A2990 RMK SLP128

May 25, 2024

Time Code Weather Temp. Visibility Ceiling Wind METAR/SPECI
23:00
V
13 °C 10 mi - 060° 060° 2 kt METAR CYHM 260300Z 06002KT 10SM SKC 13/13 A2988 RMK SLP122
22:00
V
14 °C 12 mi - 020° 020° 4 kt METAR CYHM 260200Z 02004KT 12SM SKC 14/14 A2986 RMK SLP115 DENSITY ALT 1000FT
21:00
V
17 °C 15 mi - 250° 250° 4 kt METAR CYHM 260100Z 25004KT 15SM FEW015 FEW035 FEW250 17/17 A2984 RMK CU1SC1CI1 CU TR SC TR SLP106 DENSITY ALT 1400FT
20:00
V
19 °C 15 mi - 220° 220° 3 kt METAR CYHM 260000Z 22003KT 15SM FEW015 FEW042 FEW250 19/17 A2983 RMK CU1SC1CI1 CU TR SLP102 DENSITY ALT 1600FT
19:00
V
20 °C 15 mi - 220° 220° 3 kt METAR CYHM 252300Z 22003KT 110V240 15SM FEW018 FEW047 20/17 A2982 RMK SC1SC2 SC TR SLP100 DENSITY ALT 1700FT
18:00
V
21 °C 15 mi - 170° 170° 6 kt METAR CYHM 252200Z 17006KT 100V180 15SM FEW016 FEW065 21/17 A2982 RMK SC2SC1 SC TR SLP098 DENSITY ALT 1800FT
17:15
M
20 °C 15 mi 1,500 ft 200° 200° 4 kt METAR CYHM 252115Z 20004KT 130V210 15SM BKN015 BKN065 20/17 A2983 RMK SC6SC1 SC TR SLP102 DENSITY ALT 1700FT
17:00
M
20 °C 15 mi 1,400 ft 180° 180° 4 kt METAR CYHM 252100Z 18004KT 150V240 15SM BKN014 BKN065 20/17 A2982 RMK SC7SC1 SC TR SLP101 DENSITY ALT 1700FT
16:33
M
19 °C 15 mi 1,200 ft 190° 190° 6 kt METAR CYHM 252033Z 19006KT 140V210 15SM BKN012 BKN064 19/17 A2983 RMK SC6SC1 SLP102 DENSITY ALT 1600FT
16:19
V
20 °C 15 mi 6,700 ft 180° 180° 7 kt METAR CYHM 252019Z 18007KT 150V260 15SM SCT012 BKN067 BKN100 20/18 A2983 RMK SC4AC2AC1 SLP102 DENSITY ALT 1700FT
16:00
M
18 °C 12 mi 1,000 ft 230° 230° 3 kt METAR CYHM 252000Z 23003KT 180V250 12SM BKN010 OVC110 18/18 A2983 RMK SC7AC1 SLP104 DENSITY ALT 1500FT
15:00
I
17 °C 15 mi 800 ft 200° 200° 5 kt METAR CYHM 251900Z 20005KT 15SM OVC008 17/17 A2983 RMK SC8 SLP105 DENSITY ALT 1400FT
14:35
I
18 °C 12 mi 600 ft 150° 150° 6 kt METAR CYHM 251835Z 15006KT 090V170 12SM OVC006 OVC110 18/18 A2982 RMK SC7AC1 PRESRR SLP099 DENSITY ALT 1500FT
14:18
L
15 °C 8 mi 400 ft 100° 100° 7 kt METAR CYHM 251818Z 10007KT 8SM BKN004 BKN099 15/15 A2980 RMK SC7AC1 AC TR SLP094 DENSITY ALT 1200FT
14:00
L
15 °C 5 mi 200 ft 090° 090° 10 kt METAR CYHM 251800Z 09010KT 5SM -SHRA BR OVC002 15/15 A2979 RMK SC8 CVCTV CLD EMBD SLP091 DENSITY ALT 1100FT
13:35
L
14 °C 5 mi 200 ft 030° 030° 7 kt METAR CYHM 251735Z 03007KT 340V040 5SM -SHRA BR OVC002 14/14 A2982 RMK SC8 CVCTV CLD EMBD PRESFR SLP100 DENSITY ALT 1000FT
13:18
L
14 °C 6 mi 400 ft 340° 340° 6 kt METAR CYHM 251718Z 34006KT 320V030 6SM -SHRA BR OVC004 14/14 A2984 RMK SC8 CVCTV CLD EMBD PRESRR SLP106 DENSITY ALT 1000FT
13:00
L
14 °C 8 mi 300 ft 050° 050° 8 kt METAR CYHM 251700Z 05008KT 8SM BKN003 OVC087 14/14 A2980 RMK CF7AC1 SLP096 DENSITY ALT 1000FT
12:19
L
12 °C 5 mi 200 ft 060° 060° 12 kt METAR CYHM 251619Z 06012KT 5SM -SHRA BR BKN002 BKN061 OVC100 12/12 A2983 RMK CF6SC1AC1 PRESFR SLP105
12:11
L
12 °C 5 mi 300 ft 070° 070° 11 kt METAR CYHM 251611Z 07011KT 5SM SHRA BR BKN003 OVC061 12/12 A2985 RMK CF7SC1 CVCTV CLD EMBD /R10/ PRESFR SLP111
12:00
M
12 °C 4 mi 6,300 ft 070° 070° 10 kt METAR CYHM 251600Z 07010KT 4SM SHRA BR FEW003 FEW022 BKN063 BKN077 OVC097 12/12 A2987 RMK CF1SC1SC4AC2AC1 CVCTV CLD EMBD SLP118
11:53
M
12 °C 4 mi 6,300 ft 060° 060° 9 kt METAR CYHM 251553Z 06009KT 4SM SHRA BR FEW003 FEW021 BKN063 OVC077 12/12 A2987 RMK CF1SC2SC4AC2 CF TR SLP119
11:43
M
12 °C 3 mi 6,200 ft 060° 060° 10 kt METAR CYHM 251543Z 06010KT 3SM +SHRA BR FEW015 BKN062 OVC097 12/12 A2987 RMK SC1SC6AC1 SLP119
11:39
M
12 °C 3 mi 6,200 ft 060° 060° 8 kt METAR CYHM 251539Z 06008KT 3SM SHRA BR FEW015 BKN062 OVC097 12/12 A2988 RMK SC1SC6AC1 CVCTV EMBD SLP121
11:17
M
13 °C 4 mi 5,300 ft 360° 360° 7 kt METAR CYHM 251517Z 36007KT 4SM TSRA BR FEW005 SCT039 OVC053 13/13 A2989 RMK SC2SC1SC5 CB EMBD PRESRR SLP124
11:00
I
13 °C 10 mi 500 ft 020° 020° 12 kt METAR CYHM 251500Z 02012KT 10SM -TSRA BKN005 OVC059 13/13 A2987 RMK SC7SC1 CB EMBD VIS SW 4 SLP117
11:04
I
13 °C 4 mi 500 ft 020° 020° 11 kt METAR CYHM 251504Z 02011KT 4SM TSRA BR BKN005 OVC058 13/13 A2987 RMK SC6SC2 CB EMBD SLP118
10:45
I
13 °C 12 mi 800 ft 030° 030° 11 - 16 kt METAR CYHM 251445Z 03011G16KT 12SM -SHRA BKN008 OVC060 13/13 A2986 RMK SC7SC1 CVCTV CLD EMBD SLP115
10:00
I
13 °C 12 mi 500 ft 020° 020° 11 kt METAR CYHM 251400Z 02011KT 12SM -SHRA BKN005 OVC065 13/13 A2983 RMK CF5SC3 CVCTV EMBD PCPN VRY LGT SLP103
09:38
V
13 °C 10 mi 9,800 ft 020° 020° 10 kt METAR CYHM 251338Z 02010KT 10SM -SHRA SCT005 SCT042 OVC098 13/13 A2984 RMK CF3SC1AC4 CVCTV CLD EMBD SLP105
09:00
V
14 °C 15 mi 10,000 ft 020° 020° 5 kt METAR CYHM 251300Z 02005KT 350V070 15SM -SHRA FEW033 SCT063 OVC100 14/14 A2985 RMK CF1SC3AC4 CF TR CVCTV EMBD SLP109
08:24
V
15 °C 15 mi 5,200 ft 350° 350° 5 kt METAR CYHM 251224Z 35005KT 340V040 15SM -TSRA FEW041 BKN052 OVC100 15/12 A2986 RMK SC1SC6AC1 CB EMBD PRESRR SLP114 DENSITY ALT 1000FT
08:21
V
15 °C 15 mi 5,200 ft 010° 010° 5 kt METAR CYHM 251221Z 01005KT 15SM -SHRA FEW041 BKN052 OVC100 15/12 A2986 RMK SC1SC5AC1 CVCTV CLD EMBD SLP112 DENSITY ALT 1000FT
08:00
V
15 °C 15 mi 6,200 ft 030° 030° 9 kt METAR CYHM 251200Z 03009KT 15SM FEW052 BKN062 BKN100 OVC170 15/12 A2984 RMK SC1SC4AC2AS1 SLP105 DENSITY ALT 1100FT
07:00
V
14 °C 15 mi - 030° 030° 8 kt METAR CYHM 251100Z 03008KT 15SM SCT062 SCT140 14/11 A2983 RMK SC3AC1 SLP102
06:00
V
13 °C 15 mi 12,000 ft 050° 050° 11 kt METAR CYHM 251000Z 05011KT 15SM FEW063 BKN120 BKN170 13/11 A2981 RMK SC1AC4AC1 PRESFR SLP096
05:00
V
13 °C 15 mi 20,000 ft 040° 040° 9 kt METAR CYHM 250900Z 04009KT 15SM FEW073 SCT110 BKN200 13/10 A2983 RMK AC2AC1CI2 SLP102
04:00
V
13 °C 15 mi 19,000 ft 050° 050° 8 kt METAR CYHM 250800Z 05008KT 15SM SCT079 BKN190 13/10 A2984 RMK AC4AC2 SLP107
03:00
V
13 °C 15 mi 25,000 ft 050° 050° 8 kt METAR CYHM 250700Z 05008KT 15SM BKN250 13/10 A2986 RMK CI5 SLP113
02:00
V
14 °C 15 mi 25,000 ft 050° 050° 7 kt METAR CYHM 250600Z 05007KT 15SM BKN250 14/11 A2987 RMK CI6 SLP117
Report a change